sensor_id;sensor_type;location;lat;lon;timestamp;P1;durP1;ratioP1;P2;durP2;ratioP2
20443;SDS011;10381;53.730;10.010;2023-05-07T00:00:48;29.10;;;20.38;;
20443;SDS011;10381;53.730;10.010;2023-05-07T00:04:48;27.37;;;19.70;;
20443;SDS011;10381;53.730;10.010;2023-05-07T00:08:48;28.50;;;18.90;;
20443;SDS011;10381;53.730;10.010;2023-05-07T00:12:49;26.63;;;19.75;;
20443;SDS011;10381;53.730;10.010;2023-05-07T00:16:49;27.73;;;20.47;;
20443;SDS011;10381;53.730;10.010;2023-05-07T00:20:49;27.10;;;19.50;;
20443;SDS011;10381;53.730;10.010;2023-05-07T00:24:50;32.83;;;19.53;;
20443;SDS011;10381;53.730;10.010;2023-05-07T00:28:50;24.57;;;19.27;;
20443;SDS011;10381;53.730;10.010;2023-05-07T00:32:50;25.90;;;20.00;;
20443;SDS011;10381;53.730;10.010;2023-05-07T00:36:51;29.23;;;20.92;;
20443;SDS011;10381;53.730;10.010;2023-05-07T00:40:51;24.87;;;20.37;;
20443;SDS011;10381;53.730;10.010;2023-05-07T00:44:51;25.13;;;19.20;;
20443;SDS011;10381;53.730;10.010;2023-05-07T00:48:51;25.73;;;20.70;;
20443;SDS011;10381;53.730;10.010;2023-05-07T00:52:53;21.60;;;18.48;;
20443;SDS011;10381;53.730;10.010;2023-05-07T00:56:54;26.85;;;19.98;;
20443;SDS011;10381;53.730;10.010;2023-05-07T01:00:55;24.95;;;20.10;;
20443;SDS011;10381;53.730;10.010;2023-05-07T01:04:55;27.47;;;20.70;;
20443;SDS011;10381;53.730;10.010;2023-05-07T01:08:56;26.70;;;19.55;;
20443;SDS011;10381;53.730;10.010;2023-05-07T01:12:57;32.03;;;20.60;;
20443;SDS011;10381;53.730;10.010;2023-05-07T01:16:58;29.48;;;19.38;;
20443;SDS011;10381;53.730;10.010;2023-05-07T01:20:59;34.33;;;21.27;;
20443;SDS011;10381;53.730;10.010;2023-05-07T01:25:07;31.42;;;20.77;;
20443;SDS011;10381;53.730;10.010;2023-05-07T01:29:08;27.42;;;20.98;;
20443;SDS011;10381;53.730;10.010;2023-05-07T01:33:09;26.00;;;19.17;;
20443;SDS011;10381;53.730;10.010;2023-05-07T01:37:14;22.75;;;17.45;;
20443;SDS011;10381;53.730;10.010;2023-05-07T01:41:14;28.02;;;19.95;;
20443;SDS011;10381;53.730;10.010;2023-05-07T01:45:15;25.85;;;19.35;;
20443;SDS011;10381;53.730;10.010;2023-05-07T01:49:16;29.73;;;19.70;;
20443;SDS011;10381;53.730;10.010;2023-05-07T01:53:16;27.40;;;20.02;;
20443;SDS011;10381;53.730;10.010;2023-05-07T01:57:17;27.50;;;20.60;;
20443;SDS011;10381;53.730;10.010;2023-05-07T02:01:17;25.83;;;19.83;;
20443;SDS011;10381;53.730;10.010;2023-05-07T02:05:18;29.83;;;19.60;;
20443;SDS011;10381;53.730;10.010;2023-05-07T02:09:18;25.30;;;19.80;;
20443;SDS011;10381;53.730;10.010;2023-05-07T02:13:19;23.33;;;18.02;;
20443;SDS011;10381;53.730;10.010;2023-05-07T02:17:19;28.58;;;18.48;;
20443;SDS011;10381;53.730;10.010;2023-05-07T02:21:20;25.50;;;18.37;;
20443;SDS011;10381;53.730;10.010;2023-05-07T02:25:20;25.93;;;18.97;;
20443;SDS011;10381;53.730;10.010;2023-05-07T02:29:20;23.20;;;18.55;;
20443;SDS011;10381;53.730;10.010;2023-05-07T02:33:21;29.55;;;19.38;;
20443;SDS011;10381;53.730;10.010;2023-05-07T02:37:21;27.27;;;19.23;;
20443;SDS011;10381;53.730;10.010;2023-05-07T02:41:21;25.80;;;20.50;;
20443;SDS011;10381;53.730;10.010;2023-05-07T02:45:21;29.53;;;19.67;;
20443;SDS011;10381;53.730;10.010;2023-05-07T02:49:22;25.25;;;18.95;;
20443;SDS011;10381;53.730;10.010;2023-05-07T02:53:22;29.07;;;20.63;;
20443;SDS011;10381;53.730;10.010;2023-05-07T02:57:22;31.90;;;19.83;;
20443;SDS011;10381;53.730;10.010;2023-05-07T03:01:23;30.37;;;19.40;;
20443;SDS011;10381;53.730;10.010;2023-05-07T03:05:23;29.80;;;19.07;;
20443;SDS011;10381;53.730;10.010;2023-05-07T03:09:23;33.90;;;20.17;;
20443;SDS011;10381;53.730;10.010;2023-05-07T03:13:23;23.07;;;18.97;;
20443;SDS011;10381;53.730;10.010;2023-05-07T03:17:24;27.37;;;19.13;;
20443;SDS011;10381;53.730;10.010;2023-05-07T03:21:24;34.53;;;20.10;;
20443;SDS011;10381;53.730;10.010;2023-05-07T03:25:26;27.35;;;19.63;;
20443;SDS011;10381;53.730;10.010;2023-05-07T03:29:26;28.53;;;19.47;;
20443;SDS011;10381;53.730;10.010;2023-05-07T03:33:26;28.77;;;20.20;;
20443;SDS011;10381;53.730;10.010;2023-05-07T03:37:27;27.13;;;19.77;;
20443;SDS011;10381;53.730;10.010;2023-05-07T03:41:27;26.63;;;19.67;;
20443;SDS011;10381;53.730;10.010;2023-05-07T03:45:29;25.73;;;19.20;;
20443;SDS011;10381;53.730;10.010;2023-05-07T03:49:29;24.83;;;18.33;;
20443;SDS011;10381;53.730;10.010;2023-05-07T03:53:30;29.07;;;17.57;;
20443;SDS011;10381;53.730;10.010;2023-05-07T03:57:30;29.60;;;18.97;;
20443;SDS011;10381;53.730;10.010;2023-05-07T04:01:30;25.90;;;19.13;;
20443;SDS011;10381;53.730;10.010;2023-05-07T04:05:31;23.90;;;18.30;;
20443;SDS011;10381;53.730;10.010;2023-05-07T04:09:31;24.57;;;17.70;;
20443;SDS011;10381;53.730;10.010;2023-05-07T04:13:31;28.00;;;18.80;;
20443;SDS011;10381;53.730;10.010;2023-05-07T04:17:32;28.10;;;19.45;;
20443;SDS011;10381;53.730;10.010;2023-05-07T04:21:32;26.20;;;19.63;;
20443;SDS011;10381;53.730;10.010;2023-05-07T04:25:32;27.27;;;18.70;;
20443;SDS011;10381;53.730;10.010;2023-05-07T04:29:33;24.83;;;18.67;;
20443;SDS011;10381;53.730;10.010;2023-05-07T04:33:33;22.43;;;18.67;;
20443;SDS011;10381;53.730;10.010;2023-05-07T04:37:34;25.08;;;18.65;;
20443;SDS011;10381;53.730;10.010;2023-05-07T04:41:35;28.80;;;20.45;;
20443;SDS011;10381;53.730;10.010;2023-05-07T04:45:36;31.20;;;17.73;;
20443;SDS011;10381;53.730;10.010;2023-05-07T04:49:37;23.13;;;18.02;;
20443;SDS011;10381;53.730;10.010;2023-05-07T04:53:38;22.08;;;17.83;;
20443;SDS011;10381;53.730;10.010;2023-05-07T04:57:38;25.17;;;17.42;;
20443;SDS011;10381;53.730;10.010;2023-05-07T05:01:40;21.15;;;17.08;;
20443;SDS011;10381;53.730;10.010;2023-05-07T05:05:40;22.77;;;18.05;;
20443;SDS011;10381;53.730;10.010;2023-05-07T05:09:41;21.00;;;16.30;;
20443;SDS011;10381;53.730;10.010;2023-05-07T05:13:41;19.27;;;16.57;;
20443;SDS011;10381;53.730;10.010;2023-05-07T05:17:41;20.17;;;16.65;;
20443;SDS011;10381;53.730;10.010;2023-05-07T05:21:42;20.48;;;16.23;;
20443;SDS011;10381;53.730;10.010;2023-05-07T05:25:42;19.75;;;17.25;;
20443;SDS011;10381;53.730;10.010;2023-05-07T05:29:43;23.52;;;15.93;;
20443;SDS011;10381;53.730;10.010;2023-05-07T05:33:43;24.60;;;17.50;;
20443;SDS011;10381;53.730;10.010;2023-05-07T05:37:43;20.93;;;16.67;;
20443;SDS011;10381;53.730;10.010;2023-05-07T05:41:43;18.38;;;15.90;;
20443;SDS011;10381;53.730;10.010;2023-05-07T05:45:44;20.60;;;16.87;;
20443;SDS011;10381;53.730;10.010;2023-05-07T05:49:44;18.27;;;16.10;;
20443;SDS011;10381;53.730;10.010;2023-05-07T05:53:44;19.87;;;16.37;;
20443;SDS011;10381;53.730;10.010;2023-05-07T05:57:45;25.80;;;17.90;;
20443;SDS011;10381;53.730;10.010;2023-05-07T06:01:45;28.58;;;17.17;;
20443;SDS011;10381;53.730;10.010;2023-05-07T06:05:46;21.63;;;16.70;;
20443;SDS011;10381;53.730;10.010;2023-05-07T06:09:46;26.65;;;16.63;;
20443;SDS011;10381;53.730;10.010;2023-05-07T06:13:46;21.77;;;16.40;;
20443;SDS011;10381;53.730;10.010;2023-05-07T06:17:47;22.40;;;17.47;;
20443;SDS011;10381;53.730;10.010;2023-05-07T06:21:47;21.88;;;16.55;;
20443;SDS011;10381;53.730;10.010;2023-05-07T06:25:48;22.10;;;16.20;;
20443;SDS011;10381;53.730;10.010;2023-05-07T06:29:49;20.42;;;15.43;;
20443;SDS011;10381;53.730;10.010;2023-05-07T06:33:50;19.65;;;15.95;;
20443;SDS011;10381;53.730;10.010;2023-05-07T06:37:50;23.53;;;16.07;;
20443;SDS011;10381;53.730;10.010;2023-05-07T06:41:50;19.50;;;15.97;;
20443;SDS011;10381;53.730;10.010;2023-05-07T06:45:51;17.77;;;15.80;;
20443;SDS011;10381;53.730;10.010;2023-05-07T06:49:51;19.65;;;17.02;;
20443;SDS011;10381;53.730;10.010;2023-05-07T06:53:51;17.93;;;15.60;;
20443;SDS011;10381;53.730;10.010;2023-05-07T06:57:52;19.27;;;16.70;;
20443;SDS011;10381;53.730;10.010;2023-05-07T07:01:52;18.63;;;15.73;;
20443;SDS011;10381;53.730;10.010;2023-05-07T07:05:53;16.97;;;14.93;;
20443;SDS011;10381;53.730;10.010;2023-05-07T07:09:53;17.67;;;14.52;;
20443;SDS011;10381;53.730;10.010;2023-05-07T07:13:53;23.43;;;16.70;;
20443;SDS011;10381;53.730;10.010;2023-05-07T07:17:54;17.65;;;15.68;;
20443;SDS011;10381;53.730;10.010;2023-05-07T07:21:54;19.90;;;16.03;;
20443;SDS011;10381;53.730;10.010;2023-05-07T07:25:54;17.60;;;15.60;;
20443;SDS011;10381;53.730;10.010;2023-05-07T07:29:55;17.77;;;15.07;;
20443;SDS011;10381;53.730;10.010;2023-05-07T07:33:55;16.93;;;15.00;;
20443;SDS011;10381;53.730;10.010;2023-05-07T07:37:56;23.97;;;16.60;;
20443;SDS011;10381;53.730;10.010;2023-05-07T07:41:56;19.83;;;16.73;;
20443;SDS011;10381;53.730;10.010;2023-05-07T07:45:56;18.17;;;16.03;;
20443;SDS011;10381;53.730;10.010;2023-05-07T07:49:57;17.52;;;15.25;;
20443;SDS011;10381;53.730;10.010;2023-05-07T07:53:57;18.53;;;16.53;;
20443;SDS011;10381;53.730;10.010;2023-05-07T07:57:57;19.33;;;16.08;;
20443;SDS011;10381;53.730;10.010;2023-05-07T08:01:58;17.63;;;14.67;;
20443;SDS011;10381;53.730;10.010;2023-05-07T08:05:58;17.20;;;15.30;;
20443;SDS011;10381;53.730;10.010;2023-05-07T08:09:58;20.15;;;15.60;;
20443;SDS011;10381;53.730;10.010;2023-05-07T08:13:58;17.37;;;15.57;;
20443;SDS011;10381;53.730;10.010;2023-05-07T08:17:59;19.58;;;17.48;;
20443;SDS011;10381;53.730;10.010;2023-05-07T08:22:00;19.40;;;17.40;;
20443;SDS011;10381;53.730;10.010;2023-05-07T08:26:00;18.52;;;16.40;;
20443;SDS011;10381;53.730;10.010;2023-05-07T08:30:01;19.77;;;17.60;;
20443;SDS011;10381;53.730;10.010;2023-05-07T08:34:01;20.40;;;18.27;;
20443;SDS011;10381;53.730;10.010;2023-05-07T08:38:03;20.10;;;18.20;;
20443;SDS011;10381;53.730;10.010;2023-05-07T08:42:03;19.95;;;17.85;;
20443;SDS011;10381;53.730;10.010;2023-05-07T08:46:05;20.15;;;18.05;;
20443;SDS011;10381;53.730;10.010;2023-05-07T08:50:06;19.90;;;17.38;;
20443;SDS011;10381;53.730;10.010;2023-05-07T08:54:07;20.58;;;18.48;;
20443;SDS011;10381;53.730;10.010;2023-05-07T08:58:07;18.88;;;17.08;;
20443;SDS011;10381;53.730;10.010;2023-05-07T09:02:08;19.10;;;17.15;;
20443;SDS011;10381;53.730;10.010;2023-05-07T09:06:10;19.90;;;17.30;;
20443;SDS011;10381;53.730;10.010;2023-05-07T09:10:10;18.93;;;16.93;;
20443;SDS011;10381;53.730;10.010;2023-05-07T09:14:10;20.50;;;18.30;;
20443;SDS011;10381;53.730;10.010;2023-05-07T09:18:11;19.90;;;17.80;;
20443;SDS011;10381;53.730;10.010;2023-05-07T09:22:12;19.83;;;17.75;;
20443;SDS011;10381;53.730;10.010;2023-05-07T09:26:12;20.17;;;17.58;;
20443;SDS011;10381;53.730;10.010;2023-05-07T09:30:14;20.33;;;18.08;;
20443;SDS011;10381;53.730;10.010;2023-05-07T09:34:16;20.13;;;17.95;;
20443;SDS011;10381;53.730;10.010;2023-05-07T09:38:16;24.20;;;17.25;;
20443;SDS011;10381;53.730;10.010;2023-05-07T09:42:26;19.98;;;16.90;;
20443;SDS011;10381;53.730;10.010;2023-05-07T09:46:30;19.45;;;17.35;;
20443;SDS011;10381;53.730;10.010;2023-05-07T09:50:37;19.80;;;17.08;;
20443;SDS011;10381;53.730;10.010;2023-05-07T09:54:48;20.55;;;18.35;;
20443;SDS011;10381;53.730;10.010;2023-05-07T09:58:50;19.70;;;17.67;;
20443;SDS011;10381;53.730;10.010;2023-05-07T10:02:53;20.67;;;18.48;;
20443;SDS011;10381;53.730;10.010;2023-05-07T10:06:58;21.80;;;18.25;;
20443;SDS011;10381;53.730;10.010;2023-05-07T10:10:59;19.83;;;18.02;;
20443;SDS011;10381;53.730;10.010;2023-05-07T10:14:59;23.98;;;19.73;;
20443;SDS011;10381;53.730;10.010;2023-05-07T10:19:00;19.55;;;17.55;;
20443;SDS011;10381;53.730;10.010;2023-05-07T10:23:04;20.92;;;18.65;;
20443;SDS011;10381;53.730;10.010;2023-05-07T10:27:07;19.88;;;17.38;;
20443;SDS011;10381;53.730;10.010;2023-05-07T10:35:39;17.58;;;14.38;;
20443;SDS011;10381;53.730;10.010;2023-05-07T10:39:42;14.15;;;12.75;;
20443;SDS011;10381;53.730;10.010;2023-05-07T10:43:43;14.03;;;12.53;;
20443;SDS011;10381;53.730;10.010;2023-05-07T10:52:10;13.27;;;11.25;;
20443;SDS011;10381;53.730;10.010;2023-05-07T11:04:23;13.75;;;11.90;;
20443;SDS011;10381;53.730;10.010;2023-05-07T11:08:26;12.15;;;11.05;;
20443;SDS011;10381;53.730;10.010;2023-05-07T11:12:53;12.60;;;11.30;;
20443;SDS011;10381;53.730;10.010;2023-05-07T11:17:01;11.18;;;9.95;;
20443;SDS011;10381;53.730;10.010;2023-05-07T11:21:02;12.18;;;9.82;;
20443;SDS011;10381;53.730;10.010;2023-05-07T11:25:04;12.07;;;10.88;;
20443;SDS011;10381;53.730;10.010;2023-05-07T11:29:10;11.43;;;10.32;;
20443;SDS011;10381;53.730;10.010;2023-05-07T11:33:16;10.73;;;9.68;;
20443;SDS011;10381;53.730;10.010;2023-05-07T11:37:17;9.98;;;8.98;;
20443;SDS011;10381;53.730;10.010;2023-05-07T11:41:18;10.95;;;9.50;;
20443;SDS011;10381;53.730;10.010;2023-05-07T11:45:23;10.70;;;9.15;;
20443;SDS011;10381;53.730;10.010;2023-05-07T11:49:27;9.77;;;8.77;;
20443;SDS011;10381;53.730;10.010;2023-05-07T11:53:36;10.68;;;8.98;;
20443;SDS011;10381;53.730;10.010;2023-05-07T11:57:40;8.95;;;8.02;;
20443;SDS011;10381;53.730;10.010;2023-05-07T12:01:44;10.73;;;9.30;;
20443;SDS011;10381;53.730;10.010;2023-05-07T12:05:45;10.07;;;9.05;;
20443;SDS011;10381;53.730;10.010;2023-05-07T12:09:46;13.32;;;8.50;;
20443;SDS011;10381;53.730;10.010;2023-05-07T12:13:47;8.88;;;8.07;;
20443;SDS011;10381;53.730;10.010;2023-05-07T12:17:47;8.73;;;7.90;;
20443;SDS011;10381;53.730;10.010;2023-05-07T12:21:48;8.75;;;7.95;;
20443;SDS011;10381;53.730;10.010;2023-05-07T12:25:49;10.25;;;8.30;;
20443;SDS011;10381;53.730;10.010;2023-05-07T12:29:49;8.15;;;7.35;;
20443;SDS011;10381;53.730;10.010;2023-05-07T12:33:50;7.68;;;6.88;;
20443;SDS011;10381;53.730;10.010;2023-05-07T12:38:00;8.20;;;7.50;;
20443;SDS011;10381;53.730;10.010;2023-05-07T12:42:04;8.10;;;7.38;;
20443;SDS011;10381;53.730;10.010;2023-05-07T12:46:05;9.57;;;7.03;;
20443;SDS011;10381;53.730;10.010;2023-05-07T12:50:07;8.68;;;7.65;;
20443;SDS011;10381;53.730;10.010;2023-05-07T12:54:07;8.07;;;7.38;;
20443;SDS011;10381;53.730;10.010;2023-05-07T12:58:08;7.80;;;7.10;;
20443;SDS011;10381;53.730;10.010;2023-05-07T13:02:08;7.95;;;7.15;;
20443;SDS011;10381;53.730;10.010;2023-05-07T13:06:09;8.15;;;7.00;;
20443;SDS011;10381;53.730;10.010;2023-05-07T13:10:10;7.35;;;6.65;;
20443;SDS011;10381;53.730;10.010;2023-05-07T13:14:10;6.50;;;5.90;;
20443;SDS011;10381;53.730;10.010;2023-05-07T13:18:10;6.40;;;5.77;;
20443;SDS011;10381;53.730;10.010;2023-05-07T13:22:11;6.07;;;5.47;;
20443;SDS011;10381;53.730;10.010;2023-05-07T13:26:11;5.90;;;5.30;;
20443;SDS011;10381;53.730;10.010;2023-05-07T13:30:11;8.50;;;5.80;;
20443;SDS011;10381;53.730;10.010;2023-05-07T13:34:12;6.05;;;5.45;;
20443;SDS011;10381;53.730;10.010;2023-05-07T13:38:12;6.20;;;5.60;;
20443;SDS011;10381;53.730;10.010;2023-05-07T13:42:12;5.80;;;4.80;;
20443;SDS011;10381;53.730;10.010;2023-05-07T13:46:13;5.73;;;5.07;;
20443;SDS011;10381;53.730;10.010;2023-05-07T13:50:13;5.68;;;5.07;;
20443;SDS011;10381;53.730;10.010;2023-05-07T13:54:13;6.67;;;5.13;;
20443;SDS011;10381;53.730;10.010;2023-05-07T13:58:13;6.73;;;5.30;;
20443;SDS011;10381;53.730;10.010;2023-05-07T14:02:14;5.30;;;4.90;;
20443;SDS011;10381;53.730;10.010;2023-05-07T14:06:15;5.40;;;4.90;;
20443;SDS011;10381;53.730;10.010;2023-05-07T14:10:15;4.80;;;4.30;;
20443;SDS011;10381;53.730;10.010;2023-05-07T14:14:15;6.00;;;4.33;;
20443;SDS011;10381;53.730;10.010;2023-05-07T14:18:15;7.43;;;4.60;;
20443;SDS011;10381;53.730;10.010;2023-05-07T14:22:16;5.40;;;4.90;;
20443;SDS011;10381;53.730;10.010;2023-05-07T14:26:16;5.27;;;4.70;;
20443;SDS011;10381;53.730;10.010;2023-05-07T14:30:16;6.40;;;4.90;;
20443;SDS011;10381;53.730;10.010;2023-05-07T14:34:17;4.60;;;4.20;;
20443;SDS011;10381;53.730;10.010;2023-05-07T14:38:18;4.50;;;4.10;;
20443;SDS011;10381;53.730;10.010;2023-05-07T14:42:18;5.63;;;4.60;;
20443;SDS011;10381;53.730;10.010;2023-05-07T14:46:18;4.87;;;4.37;;
20443;SDS011;10381;53.730;10.010;2023-05-07T14:50:19;5.28;;;4.40;;
20443;SDS011;10381;53.730;10.010;2023-05-07T14:54:19;5.22;;;4.60;;
20443;SDS011;10381;53.730;10.010;2023-05-07T14:58:20;4.70;;;4.20;;
20443;SDS011;10381;53.730;10.010;2023-05-07T15:02:20;5.27;;;4.87;;
20443;SDS011;10381;53.730;10.010;2023-05-07T15:06:21;5.22;;;4.70;;
20443;SDS011;10381;53.730;10.010;2023-05-07T15:10:21;9.70;;;5.85;;
20443;SDS011;10381;53.730;10.010;2023-05-07T15:14:22;6.30;;;5.43;;
20443;SDS011;10381;53.730;10.010;2023-05-07T15:18:22;5.83;;;5.23;;
20443;SDS011;10381;53.730;10.010;2023-05-07T15:22:23;5.10;;;4.60;;
20443;SDS011;10381;53.730;10.010;2023-05-07T15:26:23;4.97;;;4.47;;
20443;SDS011;10381;53.730;10.010;2023-05-07T15:30:24;5.17;;;4.67;;
20443;SDS011;10381;53.730;10.010;2023-05-07T15:34:24;5.35;;;4.90;;
20443;SDS011;10381;53.730;10.010;2023-05-07T15:38:25;6.70;;;4.97;;
20443;SDS011;10381;53.730;10.010;2023-05-07T15:42:26;5.50;;;5.00;;
20443;SDS011;10381;53.730;10.010;2023-05-07T15:46:26;5.03;;;4.53;;
20443;SDS011;10381;53.730;10.010;2023-05-07T15:50:27;4.53;;;4.13;;
20443;SDS011;10381;53.730;10.010;2023-05-07T15:54:28;5.32;;;4.82;;
20443;SDS011;10381;53.730;10.010;2023-05-07T15:58:29;5.57;;;4.97;;
20443;SDS011;10381;53.730;10.010;2023-05-07T16:02:29;7.43;;;4.80;;
20443;SDS011;10381;53.730;10.010;2023-05-07T16:06:30;6.67;;;4.90;;
20443;SDS011;10381;53.730;10.010;2023-05-07T16:10:31;5.50;;;4.70;;
20443;SDS011;10381;53.730;10.010;2023-05-07T16:14:32;4.75;;;4.28;;
20443;SDS011;10381;53.730;10.010;2023-05-07T16:18:32;6.20;;;4.97;;
20443;SDS011;10381;53.730;10.010;2023-05-07T16:22:34;6.20;;;5.10;;
20443;SDS011;10381;53.730;10.010;2023-05-07T16:26:35;7.13;;;5.35;;
20443;SDS011;10381;53.730;10.010;2023-05-07T16:30:36;10.48;;;6.05;;
20443;SDS011;10381;53.730;10.010;2023-05-07T16:34:36;7.93;;;6.67;;
20443;SDS011;10381;53.730;10.010;2023-05-07T16:38:36;9.20;;;6.10;;
20443;SDS011;10381;53.730;10.010;2023-05-07T16:42:37;7.20;;;5.82;;
20443;SDS011;10381;53.730;10.010;2023-05-07T16:46:38;5.90;;;5.28;;
20443;SDS011;10381;53.730;10.010;2023-05-07T16:50:38;6.40;;;5.80;;
20443;SDS011;10381;53.730;10.010;2023-05-07T16:54:38;7.13;;;6.20;;
20443;SDS011;10381;53.730;10.010;2023-05-07T16:58:39;9.00;;;6.20;;
20443;SDS011;10381;53.730;10.010;2023-05-07T17:02:39;7.00;;;6.30;;
20443;SDS011;10381;53.730;10.010;2023-05-07T17:06:39;7.10;;;6.40;;
20443;SDS011;10381;53.730;10.010;2023-05-07T17:10:40;6.70;;;6.10;;
20443;SDS011;10381;53.730;10.010;2023-05-07T17:14:40;7.07;;;6.35;;
20443;SDS011;10381;53.730;10.010;2023-05-07T17:18:41;7.22;;;6.53;;
20443;SDS011;10381;53.730;10.010;2023-05-07T17:22:41;7.90;;;7.00;;
20443;SDS011;10381;53.730;10.010;2023-05-07T17:26:41;6.93;;;6.37;;
20443;SDS011;10381;53.730;10.010;2023-05-07T17:30:41;7.43;;;6.78;;
20443;SDS011;10381;53.730;10.010;2023-05-07T17:34:42;6.10;;;5.25;;
20443;SDS011;10381;53.730;10.010;2023-05-07T17:38:42;4.67;;;4.27;;
20443;SDS011;10381;53.730;10.010;2023-05-07T17:42:42;5.77;;;5.17;;
20443;SDS011;10381;53.730;10.010;2023-05-07T17:46:43;8.00;;;6.17;;
20443;SDS011;10381;53.730;10.010;2023-05-07T17:50:43;7.30;;;6.50;;
20443;SDS011;10381;53.730;10.010;2023-05-07T17:54:44;13.68;;;7.38;;
20443;SDS011;10381;53.730;10.010;2023-05-07T17:58:44;8.48;;;7.22;;
20443;SDS011;10381;53.730;10.010;2023-05-07T18:02:45;12.40;;;7.57;;
20443;SDS011;10381;53.730;10.010;2023-05-07T18:06:45;8.67;;;7.50;;
20443;SDS011;10381;53.730;10.010;2023-05-07T18:10:45;7.78;;;7.07;;
20443;SDS011;10381;53.730;10.010;2023-05-07T18:14:46;8.60;;;7.50;;
20443;SDS011;10381;53.730;10.010;2023-05-07T18:18:46;9.70;;;8.68;;
20443;SDS011;10381;53.730;10.010;2023-05-07T18:22:46;9.07;;;8.20;;
20443;SDS011;10381;53.730;10.010;2023-05-07T18:26:47;10.17;;;7.60;;
20443;SDS011;10381;53.730;10.010;2023-05-07T18:30:48;8.90;;;8.00;;
20443;SDS011;10381;53.730;10.010;2023-05-07T18:34:48;10.93;;;7.80;;
20443;SDS011;10381;53.730;10.010;2023-05-07T18:38:48;8.00;;;7.03;;
20443;SDS011;10381;53.730;10.010;2023-05-07T18:42:49;9.47;;;8.43;;
20443;SDS011;10381;53.730;10.010;2023-05-07T18:46:49;8.32;;;7.43;;
20443;SDS011;10381;53.730;10.010;2023-05-07T18:50:49;9.02;;;7.43;;
20443;SDS011;10381;53.730;10.010;2023-05-07T18:54:50;9.32;;;8.18;;
20443;SDS011;10381;53.730;10.010;2023-05-07T18:58:50;10.43;;;9.27;;
20443;SDS011;10381;53.730;10.010;2023-05-07T19:02:50;11.03;;;8.67;;
20443;SDS011;10381;53.730;10.010;2023-05-07T19:06:51;12.20;;;9.43;;
20443;SDS011;10381;53.730;10.010;2023-05-07T19:10:53;11.47;;;9.20;;
20443;SDS011;10381;53.730;10.010;2023-05-07T19:14:54;10.38;;;8.77;;
20443;SDS011;10381;53.730;10.010;2023-05-07T19:18:55;13.77;;;9.67;;
20443;SDS011;10381;53.730;10.010;2023-05-07T19:22:55;11.73;;;10.47;;
20443;SDS011;10381;53.730;10.010;2023-05-07T19:26:56;12.63;;;11.27;;
20443;SDS011;10381;53.730;10.010;2023-05-07T19:30:56;12.67;;;11.30;;
20443;SDS011;10381;53.730;10.010;2023-05-07T19:34:56;14.50;;;11.43;;
20443;SDS011;10381;53.730;10.010;2023-05-07T19:38:56;13.07;;;11.77;;
20443;SDS011;10381;53.730;10.010;2023-05-07T19:42:57;16.73;;;11.90;;
20443;SDS011;10381;53.730;10.010;2023-05-07T19:46:57;13.63;;;12.23;;
20443;SDS011;10381;53.730;10.010;2023-05-07T19:50:58;14.60;;;12.07;;
20443;SDS011;10381;53.730;10.010;2023-05-07T19:54:58;15.25;;;12.48;;
20443;SDS011;10381;53.730;10.010;2023-05-07T19:58:59;13.90;;;12.50;;
20443;SDS011;10381;53.730;10.010;2023-05-07T20:02:59;13.17;;;11.77;;
20443;SDS011;10381;53.730;10.010;2023-05-07T20:06:59;16.02;;;12.70;;
20443;SDS011;10381;53.730;10.010;2023-05-07T20:11:00;13.47;;;12.17;;
20443;SDS011;10381;53.730;10.010;2023-05-07T20:15:00;18.02;;;12.80;;
20443;SDS011;10381;53.730;10.010;2023-05-07T20:19:00;13.38;;;11.98;;
20443;SDS011;10381;53.730;10.010;2023-05-07T20:23:01;14.50;;;12.43;;
20443;SDS011;10381;53.730;10.010;2023-05-07T20:27:01;12.53;;;11.23;;
20443;SDS011;10381;53.730;10.010;2023-05-07T20:31:03;12.85;;;11.55;;
20443;SDS011;10381;53.730;10.010;2023-05-07T20:35:04;19.67;;;12.47;;
20443;SDS011;10381;53.730;10.010;2023-05-07T20:39:05;16.52;;;12.82;;
20443;SDS011;10381;53.730;10.010;2023-05-07T20:43:06;13.68;;;12.38;;
20443;SDS011;10381;53.730;10.010;2023-05-07T20:47:06;14.82;;;13.30;;
20443;SDS011;10381;53.730;10.010;2023-05-07T20:51:07;14.27;;;12.57;;
20443;SDS011;10381;53.730;10.010;2023-05-07T20:55:09;15.48;;;13.88;;
20443;SDS011;10381;53.730;10.010;2023-05-07T20:59:09;15.37;;;13.87;;
20443;SDS011;10381;53.730;10.010;2023-05-07T21:03:10;17.60;;;15.70;;
20443;SDS011;10381;53.730;10.010;2023-05-07T21:07:10;18.20;;;16.30;;
20443;SDS011;10381;53.730;10.010;2023-05-07T21:11:11;18.92;;;16.23;;
20443;SDS011;10381;53.730;10.010;2023-05-07T21:15:12;17.10;;;15.50;;
20443;SDS011;10381;53.730;10.010;2023-05-07T21:19:12;18.65;;;16.27;;
20443;SDS011;10381;53.730;10.010;2023-05-07T21:23:12;17.13;;;15.37;;
20443;SDS011;10381;53.730;10.010;2023-05-07T21:27:12;18.83;;;16.10;;
20443;SDS011;10381;53.730;10.010;2023-05-07T21:31:13;18.60;;;16.00;;
20443;SDS011;10381;53.730;10.010;2023-05-07T21:35:13;17.80;;;16.02;;
20443;SDS011;10381;53.730;10.010;2023-05-07T21:39:14;16.17;;;14.68;;
20443;SDS011;10381;53.730;10.010;2023-05-07T21:43:14;18.27;;;16.13;;
20443;SDS011;10381;53.730;10.010;2023-05-07T21:47:14;17.52;;;15.70;;
20443;SDS011;10381;53.730;10.010;2023-05-07T21:51:15;17.10;;;15.50;;
20443;SDS011;10381;53.730;10.010;2023-05-07T21:55:16;20.02;;;16.60;;
20443;SDS011;10381;53.730;10.010;2023-05-07T21:59:17;17.23;;;15.55;;
20443;SDS011;10381;53.730;10.010;2023-05-07T22:03:17;17.90;;;16.17;;
20443;SDS011;10381;53.730;10.010;2023-05-07T22:07:17;18.17;;;16.37;;
20443;SDS011;10381;53.730;10.010;2023-05-07T22:11:17;18.17;;;16.27;;
20443;SDS011;10381;53.730;10.010;2023-05-07T22:15:18;18.13;;;15.77;;
20443;SDS011;10381;53.730;10.010;2023-05-07T22:19:18;18.58;;;16.40;;
20443;SDS011;10381;53.730;10.010;2023-05-07T22:23:19;18.40;;;16.02;;
20443;SDS011;10381;53.730;10.010;2023-05-07T22:27:19;16.58;;;14.80;;
20443;SDS011;10381;53.730;10.010;2023-05-07T22:31:19;15.93;;;14.53;;
20443;SDS011;10381;53.730;10.010;2023-05-07T22:35:20;17.57;;;15.73;;
20443;SDS011;10381;53.730;10.010;2023-05-07T22:39:20;23.20;;;16.10;;
20443;SDS011;10381;53.730;10.010;2023-05-07T22:43:20;17.97;;;16.17;;
20443;SDS011;10381;53.730;10.010;2023-05-07T22:47:23;17.65;;;15.95;;
20443;SDS011;10381;53.730;10.010;2023-05-07T22:51:24;17.42;;;15.73;;
20443;SDS011;10381;53.730;10.010;2023-05-07T22:55:25;17.95;;;16.15;;
20443;SDS011;10381;53.730;10.010;2023-05-07T22:59:26;18.00;;;15.70;;
20443;SDS011;10381;53.730;10.010;2023-05-07T23:03:26;16.42;;;14.82;;
20443;SDS011;10381;53.730;10.010;2023-05-07T23:07:27;27.77;;;15.85;;
20443;SDS011;10381;53.730;10.010;2023-05-07T23:11:27;16.58;;;14.98;;
20443;SDS011;10381;53.730;10.010;2023-05-07T23:15:27;16.40;;;14.80;;
20443;SDS011;10381;53.730;10.010;2023-05-07T23:19:28;17.07;;;15.47;;
20443;SDS011;10381;53.730;10.010;2023-05-07T23:23:28;19.50;;;16.33;;
20443;SDS011;10381;53.730;10.010;2023-05-07T23:27:32;16.90;;;15.10;;
20443;SDS011;10381;53.730;10.010;2023-05-07T23:31:32;17.23;;;15.53;;
20443;SDS011;10381;53.730;10.010;2023-05-07T23:35:33;16.90;;;15.20;;